sensor_id;sensor_type;location;lat;lon;timestamp;P1;durP1;ratioP1;P2;durP2;ratioP2
28509;SDS011;15723;55.684;37.928;2022-09-27T00:02:20;1179.93;;;95.47;;
28509;SDS011;15723;55.684;37.928;2022-09-27T00:04:46;1393.70;;;113.85;;
28509;SDS011;15723;55.684;37.928;2022-09-27T00:07:13;1632.40;;;127.45;;
28509;SDS011;15723;55.684;37.928;2022-09-27T00:12:42;1127.82;;;95.20;;
28509;SDS011;15723;55.684;37.928;2022-09-27T00:15:09;961.70;;;81.00;;
28509;SDS011;15723;55.684;37.928;2022-09-27T00:17:36;74.47;;;33.25;;
28509;SDS011;15723;55.684;37.928;2022-09-27T00:20:04;49.28;;;24.98;;
28509;SDS011;15723;55.684;37.928;2022-09-27T00:22:31;48.35;;;23.60;;
28509;SDS011;15723;55.684;37.928;2022-09-27T00:24:57;148.95;;;36.75;;
28509;SDS011;15723;55.684;37.928;2022-09-27T00:27:24;96.53;;;32.33;;
28509;SDS011;15723;55.684;37.928;2022-09-27T00:29:51;262.45;;;42.00;;
28509;SDS011;15723;55.684;37.928;2022-09-27T00:32:18;366.52;;;49.28;;
28509;SDS011;15723;55.684;37.928;2022-09-27T00:34:46;265.83;;;44.50;;
28509;SDS011;15723;55.684;37.928;2022-09-27T00:37:18;234.15;;;45.10;;
28509;SDS011;15723;55.684;37.928;2022-09-27T00:39:45;403.02;;;53.10;;
28509;SDS011;15723;55.684;37.928;2022-09-27T00:42:12;230.65;;;40.95;;
28509;SDS011;15723;55.684;37.928;2022-09-27T00:49:55;217.52;;;41.38;;
28509;SDS011;15723;55.684;37.928;2022-09-27T00:55:26;232.15;;;43.67;;
28509;SDS011;15723;55.684;37.928;2022-09-27T01:00:59;174.70;;;39.95;;
28509;SDS011;15723;55.684;37.928;2022-09-27T01:06:23;134.05;;;37.45;;
28509;SDS011;15723;55.684;37.928;2022-09-27T01:08:49;98.18;;;34.08;;
28509;SDS011;15723;55.684;37.928;2022-09-27T01:11:34;92.45;;;32.97;;
28509;SDS011;15723;55.684;37.928;2022-09-27T01:14:10;105.53;;;35.03;;
28509;SDS011;15723;55.684;37.928;2022-09-27T01:23:18;79.03;;;27.83;;
28509;SDS011;15723;55.684;37.928;2022-09-27T01:26:22;88.20;;;34.28;;
28509;SDS011;15723;55.684;37.928;2022-09-27T01:40:38;107.10;;;35.03;;
28509;SDS011;15723;55.684;37.928;2022-09-27T01:43:45;128.55;;;35.30;;
28509;SDS011;15723;55.684;37.928;2022-09-27T01:46:30;91.07;;;33.67;;
28509;SDS011;15723;55.684;37.928;2022-09-27T01:49:34;80.15;;;32.42;;
28509;SDS011;15723;55.684;37.928;2022-09-27T01:52:23;51.72;;;26.50;;
28509;SDS011;15723;55.684;37.928;2022-09-27T01:55:03;39.42;;;22.20;;
28509;SDS011;15723;55.684;37.928;2022-09-27T01:57:54;30.65;;;19.35;;
28509;SDS011;15723;55.684;37.928;2022-09-27T02:00:25;35.63;;;20.45;;
28509;SDS011;15723;55.684;37.928;2022-09-27T02:05:41;42.47;;;25.13;;
28509;SDS011;15723;55.684;37.928;2022-09-27T02:11:35;61.17;;;24.75;;
28509;SDS011;15723;55.684;37.928;2022-09-27T02:14:27;135.52;;;29.85;;
28509;SDS011;15723;55.684;37.928;2022-09-27T02:17:06;47.70;;;25.05;;
28509;SDS011;15723;55.684;37.928;2022-09-27T02:22:43;46.58;;;21.92;;
28509;SDS011;15723;55.684;37.928;2022-09-27T02:30:35;250.93;;;34.17;;
28509;SDS011;15723;55.684;37.928;2022-09-27T02:33:25;539.53;;;55.03;;
28509;SDS011;15723;55.684;37.928;2022-09-27T02:35:56;650.15;;;62.08;;
28509;SDS011;15723;55.684;37.928;2022-09-27T02:38:22;462.25;;;50.08;;
28509;SDS011;15723;55.684;37.928;2022-09-27T02:40:50;680.28;;;54.85;;
28509;SDS011;15723;55.684;37.928;2022-09-27T02:43:17;700.17;;;58.25;;
28509;SDS011;15723;55.684;37.928;2022-09-27T02:48:39;628.72;;;57.88;;
28509;SDS011;15723;55.684;37.928;2022-09-27T02:51:26;470.08;;;44.78;;
28509;SDS011;15723;55.684;37.928;2022-09-27T02:54:15;100.70;;;22.92;;
28509;SDS011;15723;55.684;37.928;2022-09-27T02:57:29;110.85;;;22.85;;
28509;SDS011;15723;55.684;37.928;2022-09-27T03:00:23;79.20;;;28.65;;
28509;SDS011;15723;55.684;37.928;2022-09-27T03:06:16;144.85;;;34.72;;
28509;SDS011;15723;55.684;37.928;2022-09-27T03:08:44;42.75;;;21.42;;
28509;SDS011;15723;55.684;37.928;2022-09-27T03:11:11;33.10;;;17.40;;
28509;SDS011;15723;55.684;37.928;2022-09-27T03:13:38;32.30;;;17.48;;
28509;SDS011;15723;55.684;37.928;2022-09-27T03:16:06;44.25;;;19.85;;
28509;SDS011;15723;55.684;37.928;2022-09-27T03:18:55;40.15;;;18.55;;
28509;SDS011;15723;55.684;37.928;2022-09-27T03:21:40;33.97;;;17.50;;
28509;SDS011;15723;55.684;37.928;2022-09-27T03:24:07;27.55;;;15.38;;
28509;SDS011;15723;55.684;37.928;2022-09-27T03:26:34;84.68;;;21.00;;
28509;SDS011;15723;55.684;37.928;2022-09-27T03:29:00;310.83;;;34.80;;
28509;SDS011;15723;55.684;37.928;2022-09-27T03:31:27;604.72;;;53.05;;
28509;SDS011;15723;55.684;37.928;2022-09-27T03:34:13;608.55;;;54.40;;
28509;SDS011;15723;55.684;37.928;2022-09-27T03:39:28;371.52;;;42.53;;
28509;SDS011;15723;55.684;37.928;2022-09-27T03:41:54;490.45;;;49.53;;
28509;SDS011;15723;55.684;37.928;2022-09-27T03:44:20;148.63;;;29.40;;
28509;SDS011;15723;55.684;37.928;2022-09-27T03:46:47;90.25;;;28.55;;
28509;SDS011;15723;55.684;37.928;2022-09-27T03:49:14;44.42;;;22.90;;
28509;SDS011;15723;55.684;37.928;2022-09-27T03:51:40;56.03;;;22.70;;
28509;SDS011;15723;55.684;37.928;2022-09-27T03:54:07;58.90;;;24.00;;
28509;SDS011;15723;55.684;37.928;2022-09-27T03:56:34;132.57;;;30.98;;
28509;SDS011;15723;55.684;37.928;2022-09-27T03:59:00;193.50;;;38.67;;
28509;SDS011;15723;55.684;37.928;2022-09-27T04:01:31;339.15;;;44.72;;
28509;SDS011;15723;55.684;37.928;2022-09-27T04:04:13;353.15;;;43.28;;
28509;SDS011;15723;55.684;37.928;2022-09-27T04:06:40;415.33;;;49.15;;
28509;SDS011;15723;55.684;37.928;2022-09-27T04:09:06;417.35;;;50.63;;
28509;SDS011;15723;55.684;37.928;2022-09-27T04:11:58;443.20;;;49.72;;
28509;SDS011;15723;55.684;37.928;2022-09-27T04:14:25;435.70;;;49.33;;
28509;SDS011;15723;55.684;37.928;2022-09-27T04:17:09;440.17;;;46.35;;
28509;SDS011;15723;55.684;37.928;2022-09-27T04:19:55;670.53;;;64.00;;
28509;SDS011;15723;55.684;37.928;2022-09-27T04:22:22;674.53;;;56.80;;
28509;SDS011;15723;55.684;37.928;2022-09-27T04:24:48;578.45;;;54.10;;
28509;SDS011;15723;55.684;37.928;2022-09-27T04:27:24;497.92;;;45.33;;
28509;SDS011;15723;55.684;37.928;2022-09-27T04:29:50;817.58;;;66.05;;
28509;SDS011;15723;55.684;37.928;2022-09-27T04:32:40;742.08;;;58.15;;
28509;SDS011;15723;55.684;37.928;2022-09-27T04:35:26;861.47;;;65.95;;
28509;SDS011;15723;55.684;37.928;2022-09-27T04:38:18;1074.75;;;81.25;;
28509;SDS011;15723;55.684;37.928;2022-09-27T04:40:49;708.95;;;54.95;;
28509;SDS011;15723;55.684;37.928;2022-09-27T04:43:16;766.88;;;55.40;;
28509;SDS011;15723;55.684;37.928;2022-09-27T04:45:42;537.00;;;43.35;;
28509;SDS011;15723;55.684;37.928;2022-09-27T04:48:27;395.40;;;37.45;;
28509;SDS011;15723;55.684;37.928;2022-09-27T04:50:55;610.25;;;46.42;;
28509;SDS011;15723;55.684;37.928;2022-09-27T04:54:00;642.45;;;51.05;;
28509;SDS011;15723;55.684;37.928;2022-09-27T04:56:32;817.65;;;64.78;;
28509;SDS011;15723;55.684;37.928;2022-09-27T04:59:00;702.35;;;65.75;;
28509;SDS011;15723;55.684;37.928;2022-09-27T05:01:26;294.10;;;35.45;;
28509;SDS011;15723;55.684;37.928;2022-09-27T05:03:58;272.57;;;33.13;;
28509;SDS011;15723;55.684;37.928;2022-09-27T05:06:44;449.95;;;41.60;;
28509;SDS011;15723;55.684;37.928;2022-09-27T05:09:23;270.35;;;35.60;;
28509;SDS011;15723;55.684;37.928;2022-09-27T05:11:52;47.20;;;22.25;;
28509;SDS011;15723;55.684;37.928;2022-09-27T05:14:37;97.25;;;25.02;;
28509;SDS011;15723;55.684;37.928;2022-09-27T05:17:26;63.08;;;28.45;;
28509;SDS011;15723;55.684;37.928;2022-09-27T05:20:18;76.40;;;28.05;;
28509;SDS011;15723;55.684;37.928;2022-09-27T05:22:54;129.05;;;32.67;;
28509;SDS011;15723;55.684;37.928;2022-09-27T05:25:20;64.72;;;27.60;;
28509;SDS011;15723;55.684;37.928;2022-09-27T05:27:46;205.20;;;35.78;;
28509;SDS011;15723;55.684;37.928;2022-09-27T05:30:14;78.85;;;30.75;;
28509;SDS011;15723;55.684;37.928;2022-09-27T05:32:45;66.70;;;29.52;;
28509;SDS011;15723;55.684;37.928;2022-09-27T05:35:37;71.70;;;24.73;;
28509;SDS011;15723;55.684;37.928;2022-09-27T05:38:07;54.58;;;21.80;;
28509;SDS011;15723;55.684;37.928;2022-09-27T05:40:51;60.05;;;21.17;;
28509;SDS011;15723;55.684;37.928;2022-09-27T05:43:18;80.30;;;22.23;;
28509;SDS011;15723;55.684;37.928;2022-09-27T05:45:47;63.55;;;25.30;;
28509;SDS011;15723;55.684;37.928;2022-09-27T05:48:15;119.97;;;29.52;;
28509;SDS011;15723;55.684;37.928;2022-09-27T05:51:04;144.95;;;31.20;;
28509;SDS011;15723;55.684;37.928;2022-09-27T05:53:32;82.47;;;30.83;;
28509;SDS011;15723;55.684;37.928;2022-09-27T05:56:04;124.93;;;32.17;;
28509;SDS011;15723;55.684;37.928;2022-09-27T05:58:53;130.43;;;30.23;;
28509;SDS011;15723;55.684;37.928;2022-09-27T06:01:20;101.43;;;27.25;;
28509;SDS011;15723;55.684;37.928;2022-09-27T06:04:02;98.88;;;28.52;;
28509;SDS011;15723;55.684;37.928;2022-09-27T06:06:51;102.82;;;22.30;;
28509;SDS011;15723;55.684;37.928;2022-09-27T06:09:18;54.10;;;21.20;;
28509;SDS011;15723;55.684;37.928;2022-09-27T06:11:46;138.98;;;27.38;;
28509;SDS011;15723;55.684;37.928;2022-09-27T06:14:14;116.93;;;32.55;;
28509;SDS011;15723;55.684;37.928;2022-09-27T06:16:59;70.93;;;26.15;;
28509;SDS011;15723;55.684;37.928;2022-09-27T06:19:28;106.82;;;29.70;;
28509;SDS011;15723;55.684;37.928;2022-09-27T06:21:55;196.63;;;33.58;;
28509;SDS011;15723;55.684;37.928;2022-09-27T06:24:25;66.30;;;26.25;;
28509;SDS011;15723;55.684;37.928;2022-09-27T06:26:51;237.55;;;37.05;;
28509;SDS011;15723;55.684;37.928;2022-09-27T06:29:46;113.30;;;35.28;;
28509;SDS011;15723;55.684;37.928;2022-09-27T06:32:22;97.43;;;34.65;;
28509;SDS011;15723;55.684;37.928;2022-09-27T06:34:55;127.13;;;44.55;;
28509;SDS011;15723;55.684;37.928;2022-09-27T06:37:25;124.82;;;45.03;;
28509;SDS011;15723;55.684;37.928;2022-09-27T06:39:52;117.70;;;44.90;;
28509;SDS011;15723;55.684;37.928;2022-09-27T06:42:55;116.22;;;42.65;;
28509;SDS011;15723;55.684;37.928;2022-09-27T06:45:50;131.88;;;47.53;;
28509;SDS011;15723;55.684;37.928;2022-09-27T06:48:36;150.52;;;56.05;;
28509;SDS011;15723;55.684;37.928;2022-09-27T06:51:13;201.07;;;62.72;;
28509;SDS011;15723;55.684;37.928;2022-09-27T06:53:41;157.05;;;61.17;;
28509;SDS011;15723;55.684;37.928;2022-09-27T06:56:08;109.82;;;47.85;;
28509;SDS011;15723;55.684;37.928;2022-09-27T06:58:50;126.00;;;43.17;;
28509;SDS011;15723;55.684;37.928;2022-09-27T07:01:41;146.18;;;47.88;;
28509;SDS011;15723;55.684;37.928;2022-09-27T07:04:26;90.95;;;38.47;;
28509;SDS011;15723;55.684;37.928;2022-09-27T07:06:55;57.67;;;30.38;;
28509;SDS011;15723;55.684;37.928;2022-09-27T07:09:25;53.47;;;28.48;;
28509;SDS011;15723;55.684;37.928;2022-09-27T07:11:51;62.22;;;31.77;;
28509;SDS011;15723;55.684;37.928;2022-09-27T07:14:20;67.85;;;33.13;;
28509;SDS011;15723;55.684;37.928;2022-09-27T07:16:47;68.03;;;34.50;;
28509;SDS011;15723;55.684;37.928;2022-09-27T07:19:13;53.75;;;29.60;;
28509;SDS011;15723;55.684;37.928;2022-09-27T07:21:40;50.85;;;27.55;;
28509;SDS011;15723;55.684;37.928;2022-09-27T07:24:06;40.55;;;25.75;;
28509;SDS011;15723;55.684;37.928;2022-09-27T07:26:33;35.90;;;23.33;;
28509;SDS011;15723;55.684;37.928;2022-09-27T07:28:59;35.72;;;22.80;;
28509;SDS011;15723;55.684;37.928;2022-09-27T07:31:27;39.72;;;26.05;;
28509;SDS011;15723;55.684;37.928;2022-09-27T07:33:54;35.30;;;24.65;;
28509;SDS011;15723;55.684;37.928;2022-09-27T07:36:21;34.92;;;25.73;;
28509;SDS011;15723;55.684;37.928;2022-09-27T07:38:47;36.30;;;24.50;;
28509;SDS011;15723;55.684;37.928;2022-09-27T07:41:16;36.95;;;22.98;;
28509;SDS011;15723;55.684;37.928;2022-09-27T07:43:43;34.28;;;24.70;;
28509;SDS011;15723;55.684;37.928;2022-09-27T07:46:09;40.30;;;27.65;;
28509;SDS011;15723;55.684;37.928;2022-09-27T07:48:44;41.42;;;29.33;;
28509;SDS011;15723;55.684;37.928;2022-09-27T07:51:15;39.88;;;27.35;;
28509;SDS011;15723;55.684;37.928;2022-09-27T07:53:44;20.77;;;16.90;;
28509;SDS011;15723;55.684;37.928;2022-09-27T07:56:49;26.23;;;19.25;;
28509;SDS011;15723;55.684;37.928;2022-09-27T07:59:18;24.15;;;17.60;;
28509;SDS011;15723;55.684;37.928;2022-09-27T08:01:44;11.43;;;8.55;;
28509;SDS011;15723;55.684;37.928;2022-09-27T08:04:11;15.85;;;13.55;;
28509;SDS011;15723;55.684;37.928;2022-09-27T08:06:37;11.88;;;9.60;;
28509;SDS011;15723;55.684;37.928;2022-09-27T08:09:06;10.65;;;8.55;;
28509;SDS011;15723;55.684;37.928;2022-09-27T08:11:35;10.65;;;9.48;;
28509;SDS011;15723;55.684;37.928;2022-09-27T08:14:03;10.93;;;9.23;;
28509;SDS011;15723;55.684;37.928;2022-09-27T08:16:34;6.70;;;5.55;;
28509;SDS011;15723;55.684;37.928;2022-09-27T08:19:23;7.63;;;6.78;;
28509;SDS011;15723;55.684;37.928;2022-09-27T08:22:14;7.85;;;6.88;;
28509;SDS011;15723;55.684;37.928;2022-09-27T08:24:57;6.53;;;5.93;;
28509;SDS011;15723;55.684;37.928;2022-09-27T08:27:41;8.35;;;5.95;;
28509;SDS011;15723;55.684;37.928;2022-09-27T08:30:19;9.60;;;7.45;;
28509;SDS011;15723;55.684;37.928;2022-09-27T08:32:46;7.13;;;6.00;;
28509;SDS011;15723;55.684;37.928;2022-09-27T08:35:12;8.82;;;7.57;;
28509;SDS011;15723;55.684;37.928;2022-09-27T08:37:40;9.25;;;6.40;;
28509;SDS011;15723;55.684;37.928;2022-09-27T08:40:06;8.52;;;6.32;;
28509;SDS011;15723;55.684;37.928;2022-09-27T08:42:58;7.70;;;5.88;;
28509;SDS011;15723;55.684;37.928;2022-09-27T08:45:36;8.85;;;6.82;;
28509;SDS011;15723;55.684;37.928;2022-09-27T08:48:29;9.07;;;5.90;;
28509;SDS011;15723;55.684;37.928;2022-09-27T08:50:57;7.28;;;5.60;;
28509;SDS011;15723;55.684;37.928;2022-09-27T08:53:26;5.97;;;5.43;;
28509;SDS011;15723;55.684;37.928;2022-09-27T08:55:54;8.48;;;6.07;;
28509;SDS011;15723;55.684;37.928;2022-09-27T08:58:30;6.95;;;4.97;;
28509;SDS011;15723;55.684;37.928;2022-09-27T09:01:04;6.80;;;5.10;;
28509;SDS011;15723;55.684;37.928;2022-09-27T09:03:59;6.57;;;5.07;;
28509;SDS011;15723;55.684;37.928;2022-09-27T09:06:42;6.75;;;5.55;;
28509;SDS011;15723;55.684;37.928;2022-09-27T09:12:15;6.93;;;5.22;;
28509;SDS011;15723;55.684;37.928;2022-09-27T09:15:20;7.32;;;5.00;;
28509;SDS011;15723;55.684;37.928;2022-09-27T09:25:27;5.68;;;5.13;;
28509;SDS011;15723;55.684;37.928;2022-09-27T09:27:34;6.05;;;4.70;;
28509;SDS011;15723;55.684;37.928;2022-09-27T09:35:35;4.90;;;4.30;;
28509;SDS011;15723;55.684;37.928;2022-09-27T09:40:59;6.20;;;4.95;;
28509;SDS011;15723;55.684;37.928;2022-09-27T09:46:44;8.30;;;5.95;;
28509;SDS011;15723;55.684;37.928;2022-09-27T09:49:22;13.75;;;5.13;;
28509;SDS011;15723;55.684;37.928;2022-09-27T09:52:06;7.32;;;5.90;;
28509;SDS011;15723;55.684;37.928;2022-09-27T09:55:01;6.97;;;4.93;;
28509;SDS011;15723;55.684;37.928;2022-09-27T09:57:47;10.00;;;5.75;;
28509;SDS011;15723;55.684;37.928;2022-09-27T10:00:31;7.70;;;5.70;;
28509;SDS011;15723;55.684;37.928;2022-09-27T10:02:58;7.85;;;5.32;;
28509;SDS011;15723;55.684;37.928;2022-09-27T10:05:25;6.10;;;4.53;;
28509;SDS011;15723;55.684;37.928;2022-09-27T10:07:59;7.32;;;4.93;;
28509;SDS011;15723;55.684;37.928;2022-09-27T10:10:29;7.38;;;4.18;;
28509;SDS011;15723;55.684;37.928;2022-09-27T10:13:19;6.38;;;4.15;;
28509;SDS011;15723;55.684;37.928;2022-09-27T10:16:07;10.02;;;5.63;;
28509;SDS011;15723;55.684;37.928;2022-09-27T10:18:36;5.43;;;3.65;;
28509;SDS011;15723;55.684;37.928;2022-09-27T10:21:12;4.35;;;3.22;;
28509;SDS011;15723;55.684;37.928;2022-09-27T10:26:56;7.22;;;3.10;;
28509;SDS011;15723;55.684;37.928;2022-09-27T10:29:32;3.33;;;2.53;;
28509;SDS011;15723;55.684;37.928;2022-09-27T10:32:00;2.60;;;2.13;;
28509;SDS011;15723;55.684;37.928;2022-09-27T10:34:41;5.07;;;2.53;;
28509;SDS011;15723;55.684;37.928;2022-09-27T10:39:37;4.57;;;2.67;;
28509;SDS011;15723;55.684;37.928;2022-09-27T10:47:52;2.53;;;2.33;;
28509;SDS011;15723;55.684;37.928;2022-09-27T10:50:25;2.92;;;2.67;;
28509;SDS011;15723;55.684;37.928;2022-09-27T10:53:10;3.63;;;1.77;;
28509;SDS011;15723;55.684;37.928;2022-09-27T10:55:40;2.72;;;2.40;;
28509;SDS011;15723;55.684;37.928;2022-09-27T10:58:18;4.25;;;2.83;;
28509;SDS011;15723;55.684;37.928;2022-09-27T11:01:09;4.90;;;3.10;;
28509;SDS011;15723;55.684;37.928;2022-09-27T11:04:03;3.50;;;2.50;;
28509;SDS011;15723;55.684;37.928;2022-09-27T11:06:32;3.88;;;2.83;;
28509;SDS011;15723;55.684;37.928;2022-09-27T11:09:21;4.03;;;3.50;;
28509;SDS011;15723;55.684;37.928;2022-09-27T11:12:14;4.07;;;3.42;;
28509;SDS011;15723;55.684;37.928;2022-09-27T11:14:42;6.68;;;3.15;;
28509;SDS011;15723;55.684;37.928;2022-09-27T11:19:50;4.93;;;3.72;;
28509;SDS011;15723;55.684;37.928;2022-09-27T11:22:36;3.50;;;3.05;;
28509;SDS011;15723;55.684;37.928;2022-09-27T11:28:32;6.40;;;4.20;;
28509;SDS011;15723;55.684;37.928;2022-09-27T11:31:40;5.80;;;3.65;;
28509;SDS011;15723;55.684;37.928;2022-09-27T11:45:25;3.83;;;3.10;;
28509;SDS011;15723;55.684;37.928;2022-09-27T11:48:22;3.63;;;3.03;;
28509;SDS011;15723;55.684;37.928;2022-09-27T11:59:31;5.03;;;3.25;;
28509;SDS011;15723;55.684;37.928;2022-09-27T12:13:11;5.93;;;2.97;;
28509;SDS011;15723;55.684;37.928;2022-09-27T12:21:31;4.28;;;2.90;;
28509;SDS011;15723;55.684;37.928;2022-09-27T12:24:20;4.80;;;3.63;;
28509;SDS011;15723;55.684;37.928;2022-09-27T12:27:23;7.13;;;2.90;;
28509;SDS011;15723;55.684;37.928;2022-09-27T12:30:00;3.72;;;2.72;;
28509;SDS011;15723;55.684;37.928;2022-09-27T12:32:30;5.63;;;3.40;;
28509;SDS011;15723;55.684;37.928;2022-09-27T12:35:15;7.85;;;2.90;;
28509;SDS011;15723;55.684;37.928;2022-09-27T12:38:32;6.60;;;3.05;;
28509;SDS011;15723;55.684;37.928;2022-09-27T12:40:43;5.65;;;3.40;;
28509;SDS011;15723;55.684;37.928;2022-09-27T12:43:17;4.78;;;3.58;;
28509;SDS011;15723;55.684;37.928;2022-09-27T12:46:07;3.40;;;3.03;;
28509;SDS011;15723;55.684;37.928;2022-09-27T12:52:04;6.72;;;3.38;;
28509;SDS011;15723;55.684;37.928;2022-09-27T13:13:29;1.90;;;1.70;;
28509;SDS011;15723;55.684;37.928;2022-09-27T13:15:57;2.85;;;1.45;;
28509;SDS011;15723;55.684;37.928;2022-09-27T13:18:30;6.95;;;2.58;;
28509;SDS011;15723;55.684;37.928;2022-09-27T13:24:44;4.18;;;3.25;;
28509;SDS011;15723;55.684;37.928;2022-09-27T13:27:35;5.13;;;2.67;;
28509;SDS011;15723;55.684;37.928;2022-09-27T13:32:39;4.40;;;2.83;;
28509;SDS011;15723;55.684;37.928;2022-09-27T13:35:34;6.82;;;3.45;;
28509;SDS011;15723;55.684;37.928;2022-09-27T13:38:19;3.63;;;2.78;;
28509;SDS011;15723;55.684;37.928;2022-09-27T13:40:48;7.10;;;2.95;;
28509;SDS011;15723;55.684;37.928;2022-09-27T13:43:35;6.40;;;3.17;;
28509;SDS011;15723;55.684;37.928;2022-09-27T13:46:32;5.88;;;2.10;;
28509;SDS011;15723;55.684;37.928;2022-09-27T13:51:54;5.88;;;2.92;;
28509;SDS011;15723;55.684;37.928;2022-09-27T14:00:12;7.05;;;3.33;;
28509;SDS011;15723;55.684;37.928;2022-09-27T14:02:58;8.75;;;3.53;;
28509;SDS011;15723;55.684;37.928;2022-09-27T14:05:39;5.90;;;3.47;;
28509;SDS011;15723;55.684;37.928;2022-09-27T14:11:00;7.07;;;3.30;;
28509;SDS011;15723;55.684;37.928;2022-09-27T14:13:30;6.80;;;3.42;;
28509;SDS011;15723;55.684;37.928;2022-09-27T14:16:04;9.73;;;3.20;;
28509;SDS011;15723;55.684;37.928;2022-09-27T14:18:35;4.30;;;3.08;;
28509;SDS011;15723;55.684;37.928;2022-09-27T14:21:31;3.22;;;2.75;;
28509;SDS011;15723;55.684;37.928;2022-09-27T14:29:52;6.90;;;3.22;;
28509;SDS011;15723;55.684;37.928;2022-09-27T14:32:29;5.07;;;3.60;;
28509;SDS011;15723;55.684;37.928;2022-09-27T14:35:13;8.18;;;4.78;;
28509;SDS011;15723;55.684;37.928;2022-09-27T14:38:05;8.50;;;5.43;;
28509;SDS011;15723;55.684;37.928;2022-09-27T14:43:18;17.30;;;8.57;;
28509;SDS011;15723;55.684;37.928;2022-09-27T14:45:47;8.55;;;5.60;;
28509;SDS011;15723;55.684;37.928;2022-09-27T14:48:20;17.50;;;10.18;;
28509;SDS011;15723;55.684;37.928;2022-09-27T14:50:55;19.80;;;12.10;;
28509;SDS011;15723;55.684;37.928;2022-09-27T14:53:45;18.10;;;13.30;;
28509;SDS011;15723;55.684;37.928;2022-09-27T14:56:15;19.50;;;13.57;;
28509;SDS011;15723;55.684;37.928;2022-09-27T14:58:44;22.88;;;16.10;;
28509;SDS011;15723;55.684;37.928;2022-09-27T15:01:14;23.33;;;16.52;;
28509;SDS011;15723;55.684;37.928;2022-09-27T15:03:45;17.25;;;10.63;;
28509;SDS011;15723;55.684;37.928;2022-09-27T15:06:14;14.18;;;7.00;;
28509;SDS011;15723;55.684;37.928;2022-09-27T15:08:41;9.32;;;5.68;;
28509;SDS011;15723;55.684;37.928;2022-09-27T15:11:11;6.82;;;5.22;;
28509;SDS011;15723;55.684;37.928;2022-09-27T15:13:38;6.32;;;4.18;;
28509;SDS011;15723;55.684;37.928;2022-09-27T15:16:13;9.93;;;3.85;;
28509;SDS011;15723;55.684;37.928;2022-09-27T15:18:44;9.18;;;4.13;;
28509;SDS011;15723;55.684;37.928;2022-09-27T15:21:26;7.70;;;4.18;;
28509;SDS011;15723;55.684;37.928;2022-09-27T15:23:57;8.88;;;4.97;;
28509;SDS011;15723;55.684;37.928;2022-09-27T15:29:16;17.48;;;13.40;;
28509;SDS011;15723;55.684;37.928;2022-09-27T15:31:45;14.63;;;10.75;;
28509;SDS011;15723;55.684;37.928;2022-09-27T15:34:16;12.93;;;8.05;;
28509;SDS011;15723;55.684;37.928;2022-09-27T15:39:15;7.85;;;4.95;;
28509;SDS011;15723;55.684;37.928;2022-09-27T15:52:41;11.32;;;5.30;;
28509;SDS011;15723;55.684;37.928;2022-09-27T15:55:18;8.30;;;5.05;;
28509;SDS011;15723;55.684;37.928;2022-09-27T15:57:48;12.93;;;5.65;;
28509;SDS011;15723;55.684;37.928;2022-09-27T16:00:24;9.10;;;5.97;;
28509;SDS011;15723;55.684;37.928;2022-09-27T16:02:51;10.38;;;6.75;;
28509;SDS011;15723;55.684;37.928;2022-09-27T16:05:18;7.72;;;6.28;;
28509;SDS011;15723;55.684;37.928;2022-09-27T16:07:44;9.82;;;6.35;;
28509;SDS011;15723;55.684;37.928;2022-09-27T16:10:35;9.43;;;5.63;;
28509;SDS011;15723;55.684;37.928;2022-09-27T16:13:04;9.63;;;6.45;;
28509;SDS011;15723;55.684;37.928;2022-09-27T16:15:30;15.57;;;8.48;;
28509;SDS011;15723;55.684;37.928;2022-09-27T16:17:56;14.77;;;8.55;;
28509;SDS011;15723;55.684;37.928;2022-09-27T16:20:23;10.55;;;7.75;;
28509;SDS011;15723;55.684;37.928;2022-09-27T16:22:52;11.73;;;7.63;;
28509;SDS011;15723;55.684;37.928;2022-09-27T16:25:19;14.13;;;7.53;;
28509;SDS011;15723;55.684;37.928;2022-09-27T16:27:46;9.80;;;6.82;;
28509;SDS011;15723;55.684;37.928;2022-09-27T16:30:13;11.20;;;6.68;;
28509;SDS011;15723;55.684;37.928;2022-09-27T16:32:40;9.10;;;5.95;;
28509;SDS011;15723;55.684;37.928;2022-09-27T16:35:07;10.90;;;6.28;;
28509;SDS011;15723;55.684;37.928;2022-09-27T16:37:33;7.50;;;5.10;;
28509;SDS011;15723;55.684;37.928;2022-09-27T16:40:00;7.90;;;6.35;;
28509;SDS011;15723;55.684;37.928;2022-09-27T16:42:26;8.35;;;4.78;;
28509;SDS011;15723;55.684;37.928;2022-09-27T16:44:52;9.45;;;5.28;;
28509;SDS011;15723;55.684;37.928;2022-09-27T16:47:18;6.88;;;5.30;;
28509;SDS011;15723;55.684;37.928;2022-09-27T16:49:44;10.77;;;5.57;;
28509;SDS011;15723;55.684;37.928;2022-09-27T16:52:30;9.40;;;6.90;;
28509;SDS011;15723;55.684;37.928;2022-09-27T16:54:59;11.07;;;8.10;;
28509;SDS011;15723;55.684;37.928;2022-09-27T16:57:26;9.32;;;7.50;;
28509;SDS011;15723;55.684;37.928;2022-09-27T16:59:58;6.90;;;6.05;;
28509;SDS011;15723;55.684;37.928;2022-09-27T17:02:24;7.82;;;5.45;;
28509;SDS011;15723;55.684;37.928;2022-09-27T17:04:50;9.65;;;6.15;;
28509;SDS011;15723;55.684;37.928;2022-09-27T17:07:18;7.78;;;5.40;;
28509;SDS011;15723;55.684;37.928;2022-09-27T17:09:44;9.30;;;5.68;;
28509;SDS011;15723;55.684;37.928;2022-09-27T17:12:11;8.00;;;5.68;;
28509;SDS011;15723;55.684;37.928;2022-09-27T17:14:38;7.43;;;5.63;;
28509;SDS011;15723;55.684;37.928;2022-09-27T17:17:05;10.82;;;6.82;;
28509;SDS011;15723;55.684;37.928;2022-09-27T17:19:31;9.00;;;6.50;;
28509;SDS011;15723;55.684;37.928;2022-09-27T17:21:58;8.88;;;6.53;;
28509;SDS011;15723;55.684;37.928;2022-09-27T17:24:25;8.50;;;6.38;;
28509;SDS011;15723;55.684;37.928;2022-09-27T17:26:51;12.63;;;6.55;;
28509;SDS011;15723;55.684;37.928;2022-09-27T17:29:17;8.30;;;6.22;;
28509;SDS011;15723;55.684;37.928;2022-09-27T17:31:44;7.57;;;6.25;;
28509;SDS011;15723;55.684;37.928;2022-09-27T17:34:28;9.07;;;6.05;;
28509;SDS011;15723;55.684;37.928;2022-09-27T17:36:54;7.93;;;5.63;;
28509;SDS011;15723;55.684;37.928;2022-09-27T17:39:21;13.23;;;5.15;;
28509;SDS011;15723;55.684;37.928;2022-09-27T17:41:48;12.38;;;5.50;;
28509;SDS011;15723;55.684;37.928;2022-09-27T17:44:14;7.50;;;5.07;;
28509;SDS011;15723;55.684;37.928;2022-09-27T17:46:43;7.13;;;5.38;;
28509;SDS011;15723;55.684;37.928;2022-09-27T17:49:10;6.78;;;5.20;;
28509;SDS011;15723;55.684;37.928;2022-09-27T17:51:56;7.57;;;4.95;;
28509;SDS011;15723;55.684;37.928;2022-09-27T17:54:23;7.30;;;5.35;;
28509;SDS011;15723;55.684;37.928;2022-09-27T17:56:52;9.25;;;6.47;;
28509;SDS011;15723;55.684;37.928;2022-09-27T17:59:20;5.68;;;5.07;;
28509;SDS011;15723;55.684;37.928;2022-09-27T18:01:47;7.47;;;5.32;;
28509;SDS011;15723;55.684;37.928;2022-09-27T18:04:14;9.95;;;5.40;;
28509;SDS011;15723;55.684;37.928;2022-09-27T18:06:43;10.30;;;4.78;;
28509;SDS011;15723;55.684;37.928;2022-09-27T18:09:11;9.15;;;5.60;;
28509;SDS011;15723;55.684;37.928;2022-09-27T18:11:40;8.05;;;5.32;;
28509;SDS011;15723;55.684;37.928;2022-09-27T18:14:08;10.15;;;6.63;;
28509;SDS011;15723;55.684;37.928;2022-09-27T18:16:39;10.05;;;6.47;;
28509;SDS011;15723;55.684;37.928;2022-09-27T18:19:09;11.43;;;6.90;;